»·PEaware :: WAT169 KSNA-KDEN

WAT169 :: KSNA-KDEN

FLIGHT INFORMATION

Flight Status: Arrived
Operator:
Walker Air Transport
More flights by this operator :: More flights under this callsign
Pilot: Marty P. (27464)
Aircraft: BOEING 737-800
(B738)
More flights by this aircraft type
Origin: KSNA John Wayne-Orange Co
United States
Destination: KDEN Denver Intl
United States
More flights between these airports :: More routes between these airports
Route: +STAYY3 AVRRY EED J236 TBC SHNPS TBARR1
File this flight plan on PilotEdge
Remarks:
Altitude:
(Current/Filed)
39,000ft
Speed:
(Current/Filed)
480kts
Departed: 25-Oct-20 07:14 AM
Arrived: 25-Oct-20 08:54 AM
Distance/Time
Traveled:
734nm/1:40
Distance/Time
To Go:
Arrived

Flight Plot

Page will automatically refresh every two minutes.

Flight plan parsing failed; only flown route is shown


Map Options




Map Legend


Flown Route
Filed Route
Departure Airport
Arrival Airport
Navaid (VOR, NDB)
Fix

Horizontal Profiles

Position Reports

Time Latitude Longitude Heading Altitude Ground
Speed
25-Oct-20 06:34 33.675005 -117.865072 118 66ft 0kts
25-Oct-20 06:35 33.675005 -117.865072 118 66ft 0kts
25-Oct-20 06:36 33.675005 -117.865072 118 66ft 0kts
25-Oct-20 06:37 33.675005 -117.865072 118 66ft 0kts
25-Oct-20 06:38 33.675005 -117.865072 118 66ft 0kts
25-Oct-20 06:39 33.675005 -117.865072 118 66ft 0kts
25-Oct-20 06:40 33.675005 -117.865072 118 66ft 0kts
25-Oct-20 06:41 33.675005 -117.865072 118 66ft 0kts
25-Oct-20 06:42 33.675005 -117.865072 118 66ft 0kts
25-Oct-20 06:43 33.675005 -117.865072 118 66ft 0kts
25-Oct-20 06:44 33.675005 -117.865072 118 66ft 0kts
25-Oct-20 06:45 33.675005 -117.865072 118 66ft 0kts
25-Oct-20 06:46 33.675005 -117.865072 118 66ft 0kts
25-Oct-20 06:47 33.675005 -117.865072 118 66ft 0kts
25-Oct-20 06:48 33.675005 -117.865072 118 66ft 0kts
25-Oct-20 06:49 33.675005 -117.865072 118 66ft 0kts
25-Oct-20 06:50 33.675005 -117.865072 118 66ft 0kts
25-Oct-20 06:51 33.675005 -117.865072 118 66ft 0kts
25-Oct-20 06:52 33.675005 -117.865072 118 66ft 0kts
25-Oct-20 06:53 33.675005 -117.865072 118 66ft 0kts
25-Oct-20 06:54 33.675005 -117.865072 118 66ft 0kts
25-Oct-20 06:55 33.675005 -117.865072 118 66ft 0kts
25-Oct-20 06:56 33.675005 -117.865072 118 66ft 0kts
25-Oct-20 06:57 33.675005 -117.865072 118 66ft 0kts
25-Oct-20 06:58 33.675005 -117.865072 118 66ft 0kts
25-Oct-20 07:00 33.675005 -117.865073 118 66ft 0kts
25-Oct-20 07:01 33.675005 -117.865073 118 66ft 0kts
25-Oct-20 07:02 33.675005 -117.865073 118 66ft 0kts
25-Oct-20 07:03 33.675005 -117.865073 118 66ft 0kts
25-Oct-20 07:04 33.675005 -117.865073 118 66ft 0kts
25-Oct-20 07:05 33.675005 -117.865073 118 66ft 0kts
25-Oct-20 07:06 33.675154 -117.865651 73 66ft 2kts
25-Oct-20 07:07 33.674921 -117.865965 27 66ft 0kts
25-Oct-20 07:08 33.674921 -117.865965 27 66ft 0kts
25-Oct-20 07:09 33.674921 -117.865965 27 66ft 0kts
25-Oct-20 07:10 33.675914 -117.865331 27 66ft 9kts
25-Oct-20 07:11 33.678508 -117.863686 27 66ft 13kts
25-Oct-20 07:12 33.680593 -117.863025 302 66ft 0kts
25-Oct-20 07:13 33.681308 -117.865327 211 66ft 8kts
25-Oct-20 07:14 33.658164 -117.880182 209 731ft 169kts
25-Oct-20 07:15 33.603906 -117.898341 193 3141ft 234kts
25-Oct-20 07:16 33.540456 -117.880589 152 6445ft 251kts
25-Oct-20 07:17 33.491170 -117.818241 117 9331ft 277kts
25-Oct-20 07:17 33.477482 -117.738482 86 10692ft 333kts
25-Oct-20 07:19 33.525349 -117.605241 58 13045ft 402kts
25-Oct-20 07:19 33.568526 -117.504303 70 15484ft 419kts
25-Oct-20 07:20 33.579474 -117.363357 90 18078ft 436kts
25-Oct-20 07:21 33.586333 -117.217604 78 20553ft 443kts
25-Oct-20 07:22 33.613494 -117.072338 79 22589ft 455kts
25-Oct-20 07:23 33.622685 -116.918582 88 24315ft 469kts
25-Oct-20 07:24 33.621867 -116.759216 90 25721ft 485kts
25-Oct-20 07:25 33.618455 -116.595654 91 27104ft 496kts
25-Oct-20 07:26 33.614127 -116.428595 91 28570ft 502kts
25-Oct-20 07:27 33.609457 -116.262161 91 30266ft 498kts
25-Oct-20 07:28 33.606264 -116.095267 86 31586ft 501kts
25-Oct-20 07:29 33.638383 -115.932690 69 32638ft 507kts
25-Oct-20 07:30 33.688504 -115.773773 69 33677ft 512kts
25-Oct-20 07:31 33.742604 -115.614745 59 34752ft 514kts
25-Oct-20 07:32 33.833078 -115.484829 39 35860ft 507kts
25-Oct-20 07:33 33.938565 -115.371918 38 36814ft 507kts
25-Oct-20 07:34 34.043790 -115.259364 38 37836ft 501kts
25-Oct-20 07:35 34.146394 -115.149237 38 38828ft 494kts
25-Oct-20 07:36 34.250227 -115.037439 38 38827ft 508kts
25-Oct-20 07:37 34.356665 -114.922382 38 38828ft 519kts
25-Oct-20 07:38 34.464897 -114.804983 38 38823ft 528kts
25-Oct-20 07:39 34.574147 -114.685963 38 38822ft 518kts
25-Oct-20 07:40 34.680279 -114.569950 39 38827ft 517kts
25-Oct-20 07:41 34.773043 -114.434991 53 38825ft 525kts
25-Oct-20 07:42 34.848449 -114.282941 59 38826ft 524kts
25-Oct-20 07:43 34.918754 -114.127468 60 38851ft 526kts
25-Oct-20 07:44 34.988257 -113.970108 60 38897ft 528kts
25-Oct-20 07:45 35.057836 -113.811151 60 38898ft 532kts
25-Oct-20 07:46 35.126932 -113.652379 60 38899ft 529kts
25-Oct-20 07:47 35.195629 -113.493759 60 38899ft 530kts
25-Oct-20 07:48 35.264442 -113.334113 61 38899ft 531kts
25-Oct-20 07:49 35.333151 -113.174205 61 38936ft 531kts
25-Oct-20 07:50 35.401494 -113.014202 61 39008ft 533kts
25-Oct-20 07:51 35.470108 -112.852726 61 39009ft 534kts
25-Oct-20 07:52 35.538307 -112.691430 61 39009ft 534kts
25-Oct-20 07:53 35.606661 -112.528980 61 39008ft 535kts
25-Oct-20 07:54 35.674561 -112.366813 61 39008ft 536kts
25-Oct-20 07:55 35.742032 -112.205150 62 39009ft 537kts
25-Oct-20 07:56 35.809960 -112.041410 62 38999ft 537kts
25-Oct-20 07:57 35.877701 -111.877234 62 38981ft 537kts
25-Oct-20 07:58 35.944929 -111.713463 62 38946ft 537kts
25-Oct-20 07:59 36.011899 -111.549503 62 38917ft 538kts
25-Oct-20 08:00 36.079061 -111.384263 62 38917ft 539kts
25-Oct-20 08:01 36.143154 -111.219372 56 38917ft 538kts
25-Oct-20 08:02 36.224431 -111.063224 55 38919ft 542kts
25-Oct-20 08:03 36.304791 -110.905604 56 38924ft 542kts
25-Oct-20 08:04 36.384549 -110.746948 56 38923ft 544kts
25-Oct-20 08:05 36.464111 -110.587613 56 38827ft 543kts
25-Oct-20 08:06 36.543440 -110.427915 56 38918ft 545kts
25-Oct-20 08:07 36.622417 -110.268264 57 38903ft 545kts
25-Oct-20 08:08 36.701592 -110.107535 57 38903ft 545kts
25-Oct-20 08:09 36.780604 -109.946156 57 38920ft 547kts
25-Oct-20 08:10 36.859943 -109.783331 57 38926ft 550kts
25-Oct-20 08:11 36.939345 -109.619552 57 38926ft 550kts
25-Oct-20 08:12 37.018405 -109.455676 57 38926ft 551kts
25-Oct-20 08:13 37.096660 -109.292780 57 38927ft 552kts
25-Oct-20 08:14 37.175454 -109.128108 57 38933ft 552kts
25-Oct-20 08:15 37.254392 -108.962091 57 38935ft 554kts
25-Oct-20 08:16 37.332581 -108.796769 57 38935ft 555kts
25-Oct-20 08:17 37.410970 -108.630182 57 38935ft 556kts
25-Oct-20 08:18 37.489241 -108.462992 57 38935ft 557kts
25-Oct-20 08:19 37.567639 -108.294797 57 38936ft 557kts
25-Oct-20 08:20 37.645673 -108.126663 57 38970ft 558kts
25-Oct-20 08:21 37.723655 -107.957586 57 39027ft 560kts
25-Oct-20 08:22 37.801726 -107.787329 57 39021ft 559kts
25-Oct-20 08:23 37.878964 -107.618027 58 39007ft 559kts
25-Oct-20 08:24 37.956218 -107.447799 58 38997ft 561kts
25-Oct-20 08:25 38.033128 -107.277624 58 39001ft 560kts
25-Oct-20 08:26 38.109721 -107.107297 58 38999ft 561kts
25-Oct-20 08:27 38.189335 -106.940112 44 38988ft 557kts
25-Oct-20 08:28 38.290365 -106.791279 45 36468ft 550kts
25-Oct-20 08:29 38.387180 -106.645197 46 33552ft 557kts
25-Oct-20 08:30 38.485041 -106.495751 45 30590ft 559kts
25-Oct-20 08:31 38.582494 -106.345977 46 27639ft 559kts
25-Oct-20 08:32 38.680642 -106.194710 46 26988ft 568kts
25-Oct-20 08:33 38.781265 -106.039954 46 25849ft 562kts
25-Oct-20 08:34 38.878349 -105.890708 46 24073ft 542kts
25-Oct-20 08:35 38.971854 -105.745311 46 22567ft 510kts
25-Oct-20 08:36 39.056870 -105.612858 46 20952ft 468kts
25-Oct-20 08:37 39.137339 -105.487303 46 20012ft 457kts
25-Oct-20 08:38 39.216873 -105.360949 46 18473ft 444kts
25-Oct-20 08:39 39.279607 -105.238768 70 16409ft 390kts
25-Oct-20 08:40 39.301390 -105.110187 82 14837ft 351kts
25-Oct-20 08:41 39.317002 -104.988012 78 13937ft 340kts
25-Oct-20 08:42 39.338362 -104.874849 74 13945ft 298kts
25-Oct-20 08:43 39.364851 -104.771862 69 12890ft 318kts
25-Oct-20 08:44 39.405632 -104.682209 30 11966ft 272kts
25-Oct-20 08:45 39.476774 -104.664746 347 11958ft 255kts
25-Oct-20 08:46 39.539866 -104.667920 0 11372ft 224kts
25-Oct-20 08:47 39.599389 -104.663671 357 10040ft 204kts
25-Oct-20 08:48 39.654327 -104.662729 0 8917ft 190kts
25-Oct-20 08:49 39.706846 -104.662045 0 7855ft 184kts
25-Oct-20 08:50 39.751668 -104.661483 0 6979ft 157kts
25-Oct-20 08:51 39.794037 -104.660978 0 6152ft 151kts
25-Oct-20 08:52 39.835440 -104.660341 359 5445ft 129kts
25-Oct-20 08:53 39.850394 -104.662324 350 5444ft 23kts
25-Oct-20 08:54 39.855703 -104.662564 313 5444ft 12kts
25-Oct-20 08:56 39.855863 -104.666263 271 5444ft 15kts
25-Oct-20 08:57 39.857468 -104.667229 357 5444ft 2kts

Navigation Log

Ident Type
Flight plan parsing failed, navigation log unavailable